Time;durP1;ratioP1;P1;durP2;ratioP2;P2;SDS_P1;SDS_P2;PMS_P1;PMS_P2;Temp;Humidity;BMP_temperature;BMP_pressure;BME280_temperature;BME280_humidity;BME280_pressure;Samples;Min_cycle;Max_cycle;Signal;HPM_P1;HPM_P2
2022/04/29 00:01:53;;;;;;;7.57;3.70;;;;;;;9.52;73.88;103020.84;5138248;27;20051;-33
2022/04/29 00:04:19;;;;;;;7.70;3.57;;;;;;;9.48;74.36;103015.94;5137446;27;20180;-33
2022/04/29 00:06:44;;;;;;;10.33;3.87;;;;;;;9.44;74.99;103020.84;5137926;27;20475;-34
2022/04/29 00:09:10;;;;;;;9.20;3.23;;;;;;;9.40;74.88;103033.00;5137637;27;20125;-34
2022/04/29 00:11:36;;;;;;;10.25;3.38;;;;;;;9.17;75.22;103023.88;5137095;27;20066;-34
2022/04/29 00:14:02;;;;;;;9.75;4.00;;;;;;;9.06;76.79;103019.66;5136996;27;20042;-33
2022/04/29 00:16:27;;;;;;;6.97;3.35;;;;;;;8.97;75.56;103008.03;5137284;27;20026;-33
2022/04/29 00:18:53;;;;;;;6.43;3.40;;;;;;;9.10;76.15;103012.94;5135416;27;20141;-33
2022/04/29 00:21:18;;;;;;;6.80;3.30;;;;;;;9.09;76.70;103021.22;5136777;27;20027;-33
2022/04/29 00:23:43;;;;;;;10.37;4.17;;;;;;;9.21;75.77;103026.06;5136789;27;20398;-33
2022/04/29 00:26:08;;;;;;;4.40;2.80;;;;;;;9.17;75.20;103029.28;5136062;27;20031;-33
2022/04/29 00:28:34;;;;;;;9.30;3.70;;;;;;;9.19;75.29;103021.88;5135473;27;20489;-33
2022/04/29 00:30:59;;;;;;;8.63;3.83;;;;;;;9.14;76.17;103024.25;5135617;27;20027;-33
2022/04/29 00:33:25;;;;;;;6.90;3.17;;;;;;;9.22;75.58;103014.28;5136374;27;20494;-33
2022/04/29 00:35:50;;;;;;;7.40;3.95;;;;;;;8.92;77.17;103020.34;5136624;27;20035;-33
2022/04/29 00:38:17;;;;;;;6.33;3.77;;;;;;;8.99;76.56;103014.09;5136543;27;20054;-33
2022/04/29 00:40:43;;;;;;;6.45;3.47;;;;;;;8.94;77.29;103018.31;5136993;27;20053;-33
2022/04/29 00:43:08;;;;;;;6.55;3.60;;;;;;;8.87;76.66;103017.28;5136258;27;20471;-33
2022/04/29 00:45:34;;;;;;;9.73;3.60;;;;;;;8.72;77.28;103004.44;5135632;27;20027;-33
2022/04/29 00:47:59;;;;;;;5.28;3.45;;;;;;;8.82;77.00;103008.84;5136372;27;20103;-33
2022/04/29 00:50:27;;;;;;;6.70;4.00;;;;;;;8.73;77.33;103005.28;5136493;27;20039;-33
2022/04/29 00:52:54;;;;;;;4.93;3.20;;;;;;;8.65;77.38;103003.44;5136254;27;20333;-33
2022/04/29 00:55:22;;;;;;;9.15;3.70;;;;;;;8.55;77.51;102993.81;5136252;27;20111;-33
2022/04/29 00:58:02;;;;;;;7.22;3.60;;;;;;;8.51;78.15;103001.38;5135818;27;20024;-33
2022/04/29 01:00:28;;;;;;;8.43;3.63;;;;;;;8.54;77.74;103005.59;5136410;27;20066;-33
2022/04/29 01:02:54;;;;;;;5.33;3.40;;;;;;;8.60;77.29;103011.19;5136009;27;20031;-33
2022/04/29 01:05:23;;;;;;;6.95;3.10;;;;;;;8.43;78.10;102999.50;5135814;27;20257;-33
2022/04/29 01:07:49;;;;;;;6.97;3.65;;;;;;;8.41;77.93;103009.63;5135946;27;20027;-33
2022/04/29 01:10:16;;;;;;;4.68;3.03;;;;;;;8.52;77.82;103003.06;5135971;27;20387;-33
2022/04/29 01:12:43;;;;;;;6.15;3.70;;;;;;;8.55;77.74;102988.44;5135745;27;20019;-33
2022/04/29 01:15:17;;;;;;;7.18;3.60;;;;;;;8.63;77.20;102988.41;5136305;27;20375;-33
2022/04/29 01:17:44;;;;;;;8.20;3.05;;;;;;;8.56;77.93;102999.03;5136355;27;20076;-33
2022/04/29 01:20:13;;;;;;;8.05;3.25;;;;;;;8.54;77.42;102997.50;5136472;27;20032;-33
2022/04/29 01:22:38;;;;;;;7.50;3.30;;;;;;;8.45;76.72;102999.34;5136133;27;20405;-33
2022/04/29 01:25:04;;;;;;;4.50;3.10;;;;;;;8.47;77.77;102987.38;5135424;27;20080;-33
2022/04/29 01:27:30;;;;;;;;;;;;;;;8.60;75.98;102984.22;5135674;27;20490;-32
2022/04/29 01:30:03;;;;;;;6.72;3.33;;;;;;;8.32;78.06;102980.91;5135625;27;20105;-32
2022/04/29 01:32:30;;;;;;;8.70;4.13;;;;;;;8.27;78.23;102983.25;5135385;27;20023;-33
2022/04/29 01:34:56;;;;;;;6.82;3.65;;;;;;;8.30;78.59;102969.47;5135555;27;20035;-33
2022/04/29 01:37:21;;;;;;;6.80;3.60;;;;;;;8.27;78.53;102967.06;5135362;27;20027;-33
2022/04/29 01:39:47;;;;;;;5.95;3.30;;;;;;;8.23;77.95;102950.38;5134373;27;20039;-33
2022/04/29 01:42:12;;;;;;;6.80;3.40;;;;;;;8.21;78.89;102967.75;5135785;27;20034;-33
2022/04/29 01:44:37;;;;;;;12.70;4.53;;;;;;;8.01;78.29;102961.78;5135155;27;20428;-33
2022/04/29 01:47:03;;;;;;;5.17;3.57;;;;;;;7.89;79.98;102968.44;5135225;27;20276;-33
2022/04/29 01:49:28;;;;;;;8.85;3.45;;;;;;;7.88;80.46;102967.59;5134898;27;20027;-33
2022/04/29 01:51:55;;;;;;;8.17;3.97;;;;;;;7.85;80.25;102970.59;5135905;27;20031;-33
2022/04/29 01:54:21;;;;;;;4.80;3.35;;;;;;;7.90;80.47;102964.75;5135764;27;20067;-33
2022/04/29 01:56:47;;;;;;;7.80;3.57;;;;;;;7.82;80.24;102957.47;5134791;27;20098;-33
2022/04/29 01:59:13;;;;;;;;;;;;;;;7.89;78.99;102958.50;5135893;27;20260;-33
2022/04/29 02:01:38;;;;;;;5.90;3.95;;;;;;;7.72;80.03;102930.66;5135879;27;20251;-32
2022/04/29 02:04:04;;;;;;;8.97;4.43;;;;;;;7.78;80.50;102961.50;5134943;27;20034;-33
2022/04/29 02:06:29;;;;;;;7.17;3.83;;;;;;;7.81;79.94;102958.50;5135232;27;20023;-33
2022/04/29 02:08:54;;;;;;;5.27;3.83;;;;;;;7.66;80.49;102973.53;5135026;27;20026;-33
2022/04/29 02:11:21;;;;;;;6.90;3.90;;;;;;;7.70;81.30;102973.06;5133371;27;20065;-33
2022/04/29 02:13:47;;;;;;;8.75;4.22;;;;;;;7.53;80.44;102959.69;5134418;27;20296;-33
2022/04/29 02:16:13;;;;;;;7.57;4.07;;;;;;;7.46;81.33;102938.75;5134959;27;20099;-33
2022/04/29 02:18:39;;;;;;;9.07;4.20;;;;;;;7.44;81.31;102962.31;5133101;27;20049;-33
2022/04/29 02:21:04;;;;;;;9.68;4.13;;;;;;;7.60;81.18;102961.56;5134803;27;20094;-33
2022/04/29 02:23:30;;;;;;;5.10;4.13;;;;;;;7.64;81.31;102962.94;5134714;27;20027;-33
2022/04/29 02:25:57;;;;;;;5.93;4.27;;;;;;;7.60;81.28;102964.25;5135466;27;20051;-33
2022/04/29 02:28:23;;;;;;;10.27;5.43;;;;;;;7.59;80.94;102961.72;5134156;27;20298;-33
2022/04/29 02:30:49;;;;;;;6.53;4.75;;;;;;;7.59;81.82;102961.72;5134871;27;20417;-33
2022/04/29 02:33:14;;;;;;;8.25;4.50;;;;;;;7.54;82.29;102953.28;5134363;27;20436;-33
2022/04/29 02:35:39;;;;;;;9.57;4.47;;;;;;;7.51;81.87;102949.06;5134984;27;20052;-33
2022/04/29 02:38:05;;;;;;;11.70;5.07;;;;;;;7.45;81.88;102955.09;5134329;27;20035;-33
2022/04/29 02:40:30;;;;;;;17.17;5.03;;;;;;;7.40;81.68;102958.25;5134828;27;20031;-33
2022/04/29 02:42:55;;;;;;;9.53;5.40;;;;;;;7.31;81.85;102951.13;5134722;27;20038;-33
2022/04/29 02:45:21;;;;;;;8.23;4.33;;;;;;;7.41;82.58;102953.69;5134992;27;20456;-33
2022/04/29 02:47:46;;;;;;;8.90;4.70;;;;;;;7.44;82.07;102956.09;5133856;27;20030;-33
2022/04/29 02:50:11;;;;;;;8.43;4.70;;;;;;;7.35;81.99;102957.03;5134255;27;20027;-33
2022/04/29 02:52:37;;;;;;;10.83;5.47;;;;;;;7.24;81.88;102944.69;5134416;27;20370;-33
2022/04/29 02:55:02;;;;;;;6.07;4.83;;;;;;;7.34;81.94;102956.19;5134965;27;20023;-33
2022/04/29 02:57:28;;;;;;;6.15;4.35;;;;;;;7.42;82.45;102958.94;5133136;27;20379;-33
2022/04/29 02:59:54;;;;;;;6.17;4.93;;;;;;;7.46;82.51;102951.38;5133507;27;20479;-33
2022/04/29 03:02:19;;;;;;;;;;;;;;;7.55;81.51;102954.97;5134710;28;20102;-33
2022/04/29 03:04:44;;;;;;;8.93;5.40;;;;;;;7.39;82.21;102951.19;5133650;27;19973;-33
2022/04/29 03:07:10;;;;;;;9.33;5.17;;;;;;;7.26;81.87;102939.97;5134434;28;20030;-33
2022/04/29 03:09:35;;;;;;;8.10;5.20;;;;;;;7.27;82.42;102952.47;5133990;28;20027;-33
2022/04/29 03:12:00;;;;;;;7.20;5.27;;;;;;;7.24;83.29;102950.06;5133960;28;20081;-33
2022/04/29 03:14:26;;;;;;;6.27;5.13;;;;;;;7.16;83.45;102932.00;5134159;28;20066;-33
2022/04/29 03:16:51;;;;;;;10.13;6.37;;;;;;;7.23;83.03;102927.69;5134251;27;20058;-33
2022/04/29 03:19:17;;;;;;;12.53;5.83;;;;;;;7.27;82.58;102919.28;5134261;28;20075;-33
2022/04/29 03:21:42;;;;;;;9.70;5.60;;;;;;;7.35;82.74;102917.50;5134910;27;20276;-33
2022/04/29 03:24:08;;;;;;;9.93;5.35;;;;;;;7.30;83.05;102921.69;5138351;27;20019;-33
2022/04/29 03:26:35;;;;;;;6.88;5.57;;;;;;;7.41;82.64;102921.41;5137999;27;20031;-33
2022/04/29 03:29:01;;;;;;;10.98;6.13;;;;;;;7.40;82.52;102912.50;5137582;27;20490;-33
2022/04/29 03:31:26;;;;;;;8.18;5.82;;;;;;;7.35;82.47;102895.13;5137931;27;20019;-33
2022/04/29 03:33:52;;;;;;;8.63;6.43;;;;;;;7.39;82.44;102918.03;5137808;27;20387;-33
2022/04/29 03:36:17;;;;;;;8.00;5.70;;;;;;;7.38;82.36;102924.44;5138671;27;20023;-33
2022/04/29 03:38:42;;;;;;;9.40;5.67;;;;;;;7.26;82.43;102931.91;5137648;27;20106;-33
2022/04/29 03:41:08;;;;;;;9.87;6.07;;;;;;;7.37;82.59;102946.94;5137415;27;20141;-33
2022/04/29 03:43:33;;;;;;;10.67;6.23;;;;;;;7.32;81.63;102942.06;5138348;27;20027;-33
2022/04/29 03:45:59;;;;;;;8.00;5.13;;;;;;;7.37;82.35;102934.34;5138317;27;20490;-33
2022/04/29 03:48:25;;;;;;;;;;;;;;;7.46;81.86;102933.38;5137916;27;20343;-33
2022/04/29 03:50:50;;;;;;;7.95;5.47;;;;;;;7.34;82.09;102936.50;5137764;27;19949;-33
2022/04/29 03:53:15;;;;;;;7.43;5.30;;;;;;;7.45;82.34;102937.06;5136099;27;20036;-33
2022/04/29 03:55:41;;;;;;;10.77;5.93;;;;;;;7.48;81.82;102934.06;5137662;27;20279;-33
2022/04/29 03:58:06;;;;;;;9.27;6.33;;;;;;;7.41;81.84;102924.94;5137019;27;20028;-33
2022/04/29 04:00:33;;;;;;;9.17;6.27;;;;;;;7.28;81.86;102919.16;5137540;27;20047;-33
2022/04/29 04:02:59;;;;;;;14.02;7.43;;;;;;;7.18;82.70;102915.72;5137499;27;20044;-33
2022/04/29 04:05:25;;;;;;;11.55;6.75;;;;;;;7.25;83.36;102924.84;5137429;27;20019;-33
2022/04/29 04:07:51;;;;;;;9.57;6.22;;;;;;;7.17;82.81;102912.19;5137226;27;20087;-33
2022/04/29 04:10:16;;;;;;;8.00;6.40;;;;;;;7.11;83.69;102914.66;5137353;27;20054;-33
2022/04/29 04:12:50;;;;;;;8.43;7.20;;;;;;;7.13;83.97;102920.75;5136957;27;20027;-33
2022/04/29 04:15:17;;;;;;;8.45;6.43;;;;;;;7.11;83.62;102931.63;5137219;27;20027;-33
2022/04/29 04:17:44;;;;;;;11.93;7.50;;;;;;;6.96;83.37;102899.09;5137659;27;20023;-33
2022/04/29 04:20:11;;;;;;;9.73;6.57;;;;;;;7.07;83.70;102922.19;5136894;27;20027;-33
2022/04/29 04:22:36;;;;;;;12.43;6.90;;;;;;;7.08;83.72;102918.53;5137287;27;20106;-33
2022/04/29 04:25:09;;;;;;;8.40;6.95;;;;;;;7.10;83.52;102918.34;5137076;27;20119;-33
2022/04/29 04:27:34;;;;;;;9.15;6.55;;;;;;;7.16;83.20;102907.78;5136815;27;20050;-33
2022/04/29 04:30:00;;;;;;;13.15;6.93;;;;;;;7.19;83.21;102906.66;5136453;27;20455;-33
2022/04/29 04:32:27;;;;;;;10.63;7.68;;;;;;;7.01;83.51;102900.47;5135058;27;20038;-33
2022/04/29 04:34:54;;;;;;;9.52;7.30;;;;;;;7.04;83.40;102900.16;5136801;27;20025;-33
2022/04/29 04:37:24;;;;;;;12.07;7.40;;;;;;;6.96;84.13;102919.75;5136247;27;20031;-33
2022/04/29 04:39:50;;;;;;;12.45;7.03;;;;;;;7.06;83.96;102922.34;5136266;27;20031;-33
2022/04/29 04:42:17;;;;;;;10.60;7.35;;;;;;;7.06;83.22;102912.44;5136679;27;20143;-33
2022/04/29 04:44:43;;;;;;;10.43;7.95;;;;;;;7.11;83.61;102915.50;5136568;27;20034;-33
2022/04/29 04:47:09;;;;;;;9.68;7.53;;;;;;;7.07;83.78;102916.81;5137073;27;20375;-33
2022/04/29 04:49:34;;;;;;;10.45;7.10;;;;;;;6.93;83.68;102907.50;5136452;27;20035;-33
2022/04/29 04:52:00;;;;;;;9.52;6.97;;;;;;;7.04;84.21;102911.75;5136778;27;20102;-33
2022/04/29 04:54:26;;;;;;;9.23;7.15;;;;;;;6.87;83.43;102900.03;5135923;27;20136;-33
2022/04/29 04:56:51;;;;;;;10.40;7.40;;;;;;;6.95;83.63;102921.63;5136175;27;20434;-33
2022/04/29 04:59:16;;;;;;;11.23;7.00;;;;;;;7.08;83.78;102917.69;5136129;27;20034;-33
2022/04/29 05:01:42;;;;;;;10.37;7.33;;;;;;;6.98;83.91;102915.09;5137025;27;20039;-33
2022/04/29 05:04:07;;;;;;;11.37;7.87;;;;;;;6.85;83.71;102898.50;5136758;27;20074;-33
2022/04/29 05:06:33;;;;;;;11.50;8.27;;;;;;;6.80;84.20;102922.34;5136468;27;20027;-33
2022/04/29 05:08:58;;;;;;;10.20;7.90;;;;;;;6.89;84.77;102906.09;5135546;27;20739;-33
2022/04/29 05:11:23;;;;;;;11.00;7.20;;;;;;;6.97;83.80;102908.00;5136342;27;20035;-33
2022/04/29 05:13:49;;;;;;;11.03;6.63;;;;;;;6.96;84.12;102907.16;5136074;27;20019;-33
2022/04/29 05:16:14;;;;;;;7.70;6.77;;;;;;;7.00;84.44;102917.63;5136361;27;20273;-33
2022/04/29 05:18:39;;;;;;;9.80;7.63;;;;;;;6.97;83.39;102922.28;5135974;27;20031;-33
2022/04/29 05:21:05;;;;;;;9.50;7.40;;;;;;;7.05;84.12;102926.06;5135855;27;20020;-33
2022/04/29 05:23:30;;;;;;;12.88;6.88;;;;;;;6.91;84.38;102909.47;5136010;27;20084;-33
2022/04/29 05:25:56;;;;;;;8.30;7.47;;;;;;;7.04;84.32;102921.69;5135599;27;20023;-33
2022/04/29 05:28:21;;;;;;;8.67;7.50;;;;;;;6.95;84.38;102932.38;5135533;27;20487;-33
2022/04/29 05:30:48;;;;;;;9.55;7.53;;;;;;;6.98;84.07;102931.22;5135880;27;20419;-33
2022/04/29 05:33:14;;;;;;;11.00;7.88;;;;;;;6.96;83.77;102922.44;5135414;27;20075;-33
2022/04/29 05:35:41;;;;;;;13.95;8.02;;;;;;;6.88;83.98;102920.56;5135896;27;20027;-33
2022/04/29 05:38:06;;;;;;;10.13;7.68;;;;;;;6.96;84.36;102927.84;5135254;27;20047;-33
2022/04/29 05:43:16;;;;;;;12.18;7.72;;;;;;;6.82;83.88;102899.66;5135822;27;20069;-33
2022/04/29 05:45:41;;;;;;;11.00;8.13;;;;;;;6.82;85.28;102913.09;5134868;27;20479;-33
2022/04/29 05:48:07;;;;;;;11.82;7.75;;;;;;;7.03;84.47;102922.66;5135165;27;20590;-33
2022/04/29 05:50:32;;;;;;;10.13;7.90;;;;;;;6.95;84.85;102924.31;5135599;27;20080;-33
2022/04/29 05:52:58;;;;;;;12.68;8.40;;;;;;;6.92;85.33;102919.22;5134755;27;20047;-33
2022/04/29 05:55:23;;;;;;;12.43;8.30;;;;;;;6.98;85.54;102925.84;5135370;27;20037;-33
2022/04/29 05:57:48;;;;;;;11.20;8.70;;;;;;;6.84;84.87;102912.97;5134689;27;20424;-33
2022/04/29 06:00:14;;;;;;;9.37;7.73;;;;;;;7.02;84.47;102931.75;5134940;27;20498;-33
2022/04/29 06:02:40;;;;;;;12.98;8.45;;;;;;;6.96;84.95;102914.38;5134867;27;20360;-33
2022/04/29 06:05:06;;;;;;;11.60;8.07;;;;;;;7.11;84.78;102942.41;5135047;27;20419;-33
2022/04/29 06:07:31;;;;;;;;;;;;;;;7.26;84.43;102939.13;5134830;27;20167;-33
2022/04/29 06:09:57;;;;;;;10.13;7.47;;;;;;;7.15;83.63;102942.94;5134835;27;19942;-33
2022/04/29 06:12:22;;;;;;;10.33;7.87;;;;;;;7.29;84.19;102942.38;5134381;27;20102;-33
2022/04/29 06:14:47;;;;;;;9.57;7.53;;;;;;;7.42;83.69;102945.50;5134328;27;20264;-38
2022/04/29 06:17:13;;;;;;;8.33;7.00;;;;;;;7.42;83.63;102945.50;5134548;27;20031;-33
2022/04/29 06:19:39;;;;;;;10.57;8.05;;;;;;;7.55;83.17;102949.59;5134499;27;20023;-33
2022/04/29 06:22:05;;;;;;;9.88;7.68;;;;;;;7.38;82.70;102924.44;5134409;27;20159;-33
2022/04/29 06:24:32;;;;;;;14.05;8.85;;;;;;;7.48;83.72;102942.16;5134746;27;20110;-33
2022/04/29 06:26:57;;;;;;;11.68;7.65;;;;;;;7.59;83.20;102945.56;5135108;27;20478;-33
2022/04/29 06:29:23;;;;;;;15.20;8.20;;;;;;;7.49;83.38;102957.28;5134693;27;20152;-33
2022/04/29 06:31:48;;;;;;;11.40;7.50;;;;;;;7.48;83.73;102950.22;5134658;27;20705;-33
2022/04/29 06:34:13;;;;;;;10.60;7.90;;;;;;;7.35;83.56;102925.56;5134028;27;20027;-33
2022/04/29 06:36:39;;;;;;;11.10;8.23;;;;;;;7.61;83.17;102951.63;5134614;27;20023;-33
2022/04/29 06:39:04;;;;;;;10.73;7.47;;;;;;;7.69;83.02;102946.31;5134234;27;20027;-33
2022/04/29 06:41:30;;;;;;;11.83;8.23;;;;;;;7.77;83.17;102951.72;5134486;27;20412;-33
2022/04/29 06:43:55;;;;;;;11.60;8.38;;;;;;;7.68;82.71;102947.31;5134132;27;20070;-33
2022/04/29 06:46:24;;;;;;;10.17;8.33;;;;;;;7.71;82.80;102944.28;5134109;27;20031;-33
2022/04/29 06:48:50;;;;;;;11.90;8.85;;;;;;;7.56;82.83;102951.25;5134028;27;20059;-33
2022/04/29 06:51:15;;;;;;;11.35;8.15;;;;;;;7.68;82.85;102958.09;5134560;27;20035;-33
2022/04/29 06:53:40;;;;;;;11.83;8.47;;;;;;;7.75;82.87;102956.41;5134063;27;20030;-33
2022/04/29 06:56:06;;;;;;;14.17;8.37;;;;;;;7.87;82.38;102951.63;5133625;27;20098;-33
2022/04/29 06:58:32;;;;;;;8.90;7.67;;;;;;;7.94;81.56;102961.56;5134492;27;20041;-33
2022/04/29 07:00:57;;;;;;;;;;;;;;;8.03;81.74;102964.31;5134317;27;20395;-33
2022/04/29 07:03:22;;;;;;;10.60;8.33;;;;;;;8.11;82.42;102964.34;5133801;27;19965;-33
2022/04/29 07:05:50;;;;;;;13.50;8.67;;;;;;;8.13;81.66;102970.41;5133951;28;20639;-33
2022/04/29 07:08:16;;;;;;;11.95;8.20;;;;;;;8.19;81.20;102961.66;5134114;28;20375;-33
2022/04/29 07:10:42;;;;;;;13.40;8.30;;;;;;;8.15;81.21;102953.06;5134179;28;20091;-33
2022/04/29 07:13:08;;;;;;;9.03;7.63;;;;;;;8.39;80.77;102970.34;5133586;28;20023;-33
2022/04/29 07:15:34;;;;;;;13.27;8.20;;;;;;;8.45;80.56;102964.31;5134587;28;20601;-33
2022/04/29 07:17:59;;;;;;;11.75;8.25;;;;;;;8.50;80.07;102960.09;5133458;28;20036;-33
2022/04/29 07:20:25;;;;;;;12.40;7.75;;;;;;;8.66;79.69;102955.72;5134165;28;20039;-33
2022/04/29 07:22:51;;;;;;;12.32;7.60;;;;;;;8.75;79.70;102954.72;5132112;28;20172;-33
2022/04/29 07:25:16;;;;;;;10.83;7.77;;;;;;;8.93;79.30;102957.25;5133769;28;20098;-33
2022/04/29 07:27:42;;;;;;;11.43;8.32;;;;;;;8.81;78.64;102951.34;5133399;27;20110;-33
2022/04/29 07:30:08;;;;;;;16.08;8.27;;;;;;;8.85;78.81;102960.81;5134486;28;20030;-33
2022/04/29 07:32:34;;;;;;;9.57;7.90;;;;;;;8.82;77.86;102960.28;5133841;28;20034;-33
2022/04/29 07:43:12;;;;;;;11.35;7.90;;;;;;;9.05;78.58;102937.03;5133794;28;20146;-33
2022/04/29 07:45:38;;;;;;;15.67;8.40;;;;;;;9.09;77.20;102946.47;5133783;28;20110;-33
2022/04/29 07:48:05;;;;;;;10.43;7.55;;;;;;;9.22;78.04;102951.34;5133929;28;20272;-33
2022/04/29 07:50:31;;;;;;;11.02;7.40;;;;;;;9.29;77.50;102938.84;5133807;28;20023;-33
2022/04/29 07:52:57;;;;;;;12.75;7.97;;;;;;;9.47;77.05;102934.09;5133151;28;20023;-33
2022/04/29 07:55:23;;;;;;;11.65;7.43;;;;;;;9.59;76.38;102949.91;5133293;28;20099;-33
2022/04/29 07:57:48;;;;;;;9.50;8.00;;;;;;;9.79;76.85;102945.78;5132727;28;20510;-33
2022/04/29 08:00:14;;;;;;;11.13;7.70;;;;;;;10.00;77.43;102948.78;5133117;28;20030;-33
2022/04/29 08:02:40;;;;;;;11.10;7.50;;;;;;;10.01;75.38;102950.44;5134299;28;20027;-34
2022/04/29 08:05:06;;;;;;;10.68;7.50;;;;;;;10.06;75.56;102952.63;5134125;28;20023;-33
2022/04/29 08:07:32;;;;;;;10.15;7.25;;;;;;;10.17;74.40;102964.91;5133334;27;20046;-33
2022/04/29 08:09:58;;;;;;;11.30;7.30;;;;;;;10.27;73.71;102963.69;5137331;27;20060;-33
2022/04/29 08:12:23;;;;;;;9.47;6.90;;;;;;;10.34;73.85;102961.09;5136655;27;20505;-34
2022/04/29 08:14:48;;;;;;;9.63;6.93;;;;;;;10.32;73.20;102965.88;5137030;27;20480;-33
2022/04/29 08:17:14;;;;;;;10.37;8.00;;;;;;;10.32;74.02;102966.69;5136922;27;20068;-33
2022/04/29 08:19:39;;;;;;;14.70;8.10;;;;;;;10.33;73.72;102967.53;5136639;27;20145;-33
2022/04/29 08:22:05;;;;;;;9.70;7.07;;;;;;;10.48;74.17;102970.31;5136886;27;20269;-33
2022/04/29 08:24:30;;;;;;;9.33;7.47;;;;;;;10.41;74.84;102936.91;5136754;27;20024;-33
2022/04/29 08:26:55;;;;;;;16.43;8.07;;;;;;;10.55;73.09;102957.78;5137354;27;20523;-33
2022/04/29 08:29:20;;;;;;;13.63;8.97;;;;;;;10.51;73.39;102953.75;5136685;27;20398;-33
2022/04/29 08:31:48;;;;;;;10.70;7.03;;;;;;;10.53;73.28;102947.13;5137180;27;20038;-33
2022/04/29 08:34:17;;;;;;;11.57;7.25;;;;;;;10.60;73.57;102958.09;5136516;27;20058;-33
2022/04/29 08:36:43;;;;;;;19.35;8.32;;;;;;;10.60;72.97;102959.97;5136834;27;20061;-33
2022/04/29 08:39:08;;;;;;;11.07;7.43;;;;;;;10.54;73.27;102953.38;5136495;27;20027;-33
2022/04/29 08:41:36;;;;;;;13.30;8.20;;;;;;;10.53;73.09;102965.22;5136085;27;20031;-33
2022/04/29 08:44:03;;;;;;;13.05;7.65;;;;;;;10.40;72.69;102970.41;5136293;27;20031;-33
2022/04/29 08:46:30;;;;;;;9.65;7.45;;;;;;;10.25;73.06;102944.09;5136879;27;20058;-33
2022/04/29 08:48:58;;;;;;;14.68;7.50;;;;;;;10.41;72.93;102972.06;5136247;27;20023;-33
2022/04/29 08:51:23;;;;;;;10.25;7.57;;;;;;;10.39;73.63;102966.81;5135222;27;20043;-33
2022/04/29 08:53:48;;;;;;;10.80;8.07;;;;;;;10.31;72.89;102956.91;5136243;27;20431;-33
2022/04/29 08:59:15;;;;;;;11.68;7.63;;;;;;;10.54;74.02;102950.66;5072547;28;20123;-33
2022/04/29 09:01:41;;;;;;;12.20;8.10;;;;;;;10.57;72.65;102959.28;5072504;28;20132;-33
2022/04/29 09:04:06;;;;;;;12.95;7.95;;;;;;;10.47;73.03;102949.72;5072917;28;20132;-33
2022/04/29 09:06:32;;;;;;;13.20;7.63;;;;;;;10.64;73.22;102958.53;5072495;28;20556;-33
2022/04/29 09:09:08;;;;;;;12.50;8.15;;;;;;;10.56;73.19;102957.59;5072310;28;20370;-33
2022/04/29 09:11:34;;;;;;;14.35;7.60;;;;;;;10.73;72.36;102955.59;5072925;28;20036;-33
2022/04/29 09:14:26;;;;;;;11.30;8.33;;;;;;;10.78;73.09;102960.47;5072660;28;20572;-33
2022/04/29 09:16:52;;;;;;;10.80;7.40;;;;;;;10.95;72.03;102955.78;5072881;28;20697;-33
2022/04/29 09:19:31;;;;;;;16.40;9.23;;;;;;;11.01;72.35;102958.59;5072119;28;20028;-33
2022/04/29 09:22:07;;;;;;;9.98;7.18;;;;;;;11.05;71.95;102956.38;5072144;28;20024;-33
2022/04/29 09:24:34;;;;;;;9.95;7.35;;;;;;;10.96;71.54;102933.94;5072093;28;20036;-33
2022/04/29 09:27:01;;;;;;;12.00;8.13;;;;;;;11.12;70.95;102957.31;5072556;28;20067;-33
2022/04/29 09:29:28;;;;;;;10.98;7.90;;;;;;;11.20;71.70;102957.25;5071892;28;20035;-33
2022/04/29 09:31:58;;;;;;;12.48;7.70;;;;;;;11.32;71.21;102957.63;5072696;28;20528;-33
2022/04/29 09:34:50;;;;;;;13.30;8.10;;;;;;;11.30;71.36;102941.56;5134696;27;20376;-33
2022/04/29 09:37:27;;;;;;;10.43;8.05;;;;;;;11.40;70.78;102956.72;5134664;27;20027;-33
2022/04/29 09:40:03;;;;;;;12.80;8.05;;;;;;;11.40;70.49;102959.44;5135131;27;20336;-33
2022/04/29 09:42:44;;;;;;;14.38;8.00;;;;;;;11.51;70.53;102965.22;5134883;27;20034;-33
2022/04/29 09:45:22;;;;;;;9.40;6.53;;;;;;;11.68;70.06;102971.31;5135898;27;20023;-33
2022/04/29 09:47:53;;;;;;;11.27;6.97;;;;;;;11.76;69.97;102964.94;5135692;27;20068;-33
2022/04/29 09:50:19;;;;;;;11.38;7.35;;;;;;;11.78;69.62;102957.50;5135638;27;20024;-33
2022/04/29 09:52:45;;;;;;;10.35;6.38;;;;;;;11.76;69.00;102948.69;5136174;27;20348;-33
2022/04/29 09:55:18;;;;;;;10.02;7.22;;;;;;;11.88;69.41;102966.19;5135716;27;20030;-33
2022/04/29 09:57:59;;;;;;;10.85;6.60;;;;;;;11.82;69.38;102961.53;5135507;27;20027;-33
2022/04/29 10:00:25;;;;;;;14.52;7.82;;;;;;;11.58;68.84;102944.50;5134964;27;20027;-33
2022/04/29 10:02:50;;;;;;;10.18;6.60;;;;;;;11.58;69.81;102960.75;5135320;27;20105;-33
2022/04/29 10:05:16;;;;;;;10.48;7.35;;;;;;;11.69;70.01;102958.59;5134548;27;20027;-33
2022/04/29 10:07:42;;;;;;;10.63;6.72;;;;;;;11.71;70.19;102945.69;5134604;27;20023;-33
2022/04/29 10:10:11;;;;;;;16.05;7.47;;;;;;;11.69;69.43;102950.47;5134639;27;20524;-34
2022/04/29 10:12:37;;;;;;;11.32;7.55;;;;;;;11.46;69.83;102937.00;5134294;27;20031;-33
2022/04/29 10:15:09;;;;;;;9.13;6.50;;;;;;;11.64;70.29;102944.78;5134452;27;20073;-33
2022/04/29 10:23:14;;;;;;;11.48;6.50;;;;;;;11.70;70.23;102936.72;5134529;27;20604;-33
2022/04/29 10:25:41;;;;;;;10.15;6.72;;;;;;;11.64;70.12;102928.53;5134867;27;20447;-33
2022/04/29 10:28:08;;;;;;;9.35;6.40;;;;;;;11.71;70.12;102940.28;5134920;27;20054;-33
2022/04/29 10:30:42;;;;;;;11.77;7.35;;;;;;;11.57;70.20;102945.53;5134678;27;20402;-33
2022/04/29 10:33:11;;;;;;;11.32;6.32;;;;;;;11.69;70.36;102936.94;5134334;27;20027;-33
2022/04/29 10:35:39;;;;;;;10.57;6.55;;;;;;;11.65;70.15;102920.19;5134618;27;20027;-33
2022/04/29 12:13:36;;;;;;;7.15;3.67;;;;;;;14.49;54.63;102877.25;5077323;27;1239025;-33
2022/04/29 12:16:04;;;;;;;6.72;3.63;;;;;;;14.50;54.76;102861.78;5109600;28;20042;-33
2022/04/29 12:18:43;;;;;;;9.55;4.15;;;;;;;14.69;55.86;102874.56;5109816;28;20057;-33
2022/04/29 12:21:09;;;;;;;6.43;3.90;;;;;;;14.80;55.78;102852.16;5109958;28;20388;-34
2022/04/29 12:23:35;;;;;;;6.15;4.10;;;;;;;14.72;54.81;102865.13;5109722;28;20051;-33
2022/04/29 12:26:01;;;;;;;;;;;;;;;14.97;56.29;102865.31;5110737;28;20115;-33
2022/04/29 12:28:28;;;;;;;9.93;4.32;;;;;;;14.86;55.90;102861.38;5110061;28;19912;-33
2022/04/29 12:36:53;;;;;;;7.57;4.43;;;;;;;15.44;56.73;102859.56;5096249;28;20085;-33
2022/04/29 12:39:26;;;;;;;9.40;5.18;;;;;;;15.20;55.54;102842.03;5096064;28;20028;-33
2022/04/29 12:42:09;;;;;;;10.23;4.60;;;;;;;15.28;56.73;102857.31;5096057;28;20411;-34
2022/04/29 12:47:53;;;;;;;8.52;4.20;;;;;;;15.31;55.14;102858.75;5096315;28;20131;-34
2022/04/29 12:50:28;;;;;;;9.40;4.72;;;;;;;15.49;55.72;102863.53;5095903;28;20032;-34
2022/04/29 12:53:00;;;;;;;7.57;4.80;;;;;;;15.61;56.16;102857.19;5096118;28;20388;-33
2022/04/29 12:55:31;;;;;;;8.88;4.88;;;;;;;15.73;54.29;102853.84;5096207;28;20032;-33
2022/04/29 12:58:09;;;;;;;8.32;4.45;;;;;;;15.73;55.01;102856.56;5096112;28;20051;-34
2022/04/29 13:00:36;;;;;;;8.65;4.43;;;;;;;15.76;53.41;102845.19;5095641;28;20044;-34
2022/04/29 13:03:04;;;;;;;8.48;4.53;;;;;;;15.75;53.77;102847.09;5095308;28;20119;-33
2022/04/29 13:05:31;;;;;;;8.70;4.88;;;;;;;15.83;53.87;102844.13;5095070;28;20024;-34
2022/04/29 13:07:57;;;;;;;9.30;4.55;;;;;;;15.67;53.02;102820.94;5095306;28;20052;-34
2022/04/29 13:10:22;;;;;;;;;;;;;;;15.96;53.99;102845.97;5096230;28;20028;-33
2022/04/29 13:12:48;;;;;;;7.93;5.05;;;;;;;15.63;53.03;102843.38;5104865;28;20425;-34
2022/04/29 13:15:13;;;;;;;;;;;;;;;15.79;52.77;102845.63;5116478;28;20111;-34
2022/04/29 13:17:38;;;;;;;6.28;4.13;;;;;;;15.60;53.11;102833.72;5115380;28;19908;-34
2022/04/29 13:20:08;;;;;;;8.73;4.47;;;;;;;15.76;53.04;102828.84;5115762;28;20024;-34
2022/04/29 13:22:34;;;;;;;7.60;4.40;;;;;;;15.74;52.05;102826.34;5115757;28;20030;-34
2022/04/29 13:25:00;;;;;;;7.60;4.40;;;;;;;15.83;52.19;102821.47;5115812;28;20088;-34
2022/04/29 13:27:25;;;;;;;;;;;;;;;16.25;52.77;102824.56;5114042;28;20464;-33
2022/04/29 13:29:50;;;;;;;8.63;4.65;;;;;;;15.96;51.65;102819.50;5101737;28;19915;-33
2022/04/29 13:32:16;;;;;;;8.50;4.60;;;;;;;15.89;52.69;102802.31;5115142;28;20081;-34